sensor_id;sensor_type;location;lat;lon;timestamp;pressure;altitude;pressure_sealevel;temperature;humidity
32237;BME280;18726;44.732;10.550;2022-12-18T00:00:41;102231.50;;;9.85;100.00
32237;BME280;18726;44.732;10.550;2022-12-18T00:03:46;102256.41;;;9.60;100.00
32237;BME280;18726;44.732;10.550;2022-12-18T00:06:51;102247.97;;;9.61;100.00
32237;BME280;18726;44.732;10.550;2022-12-18T00:09:55;102252.69;;;9.56;100.00
32237;BME280;18726;44.732;10.550;2022-12-18T00:13:00;102243.53;;;9.24;100.00
32237;BME280;18726;44.732;10.550;2022-12-18T00:16:05;102243.28;;;9.07;100.00
32237;BME280;18726;44.732;10.550;2022-12-18T00:19:10;102248.94;;;9.10;100.00
32237;BME280;18726;44.732;10.550;2022-12-18T00:22:14;102255.16;;;9.11;100.00
32237;BME280;18726;44.732;10.550;2022-12-18T00:25:21;102264.91;;;9.12;100.00
32237;BME280;18726;44.732;10.550;2022-12-18T00:28:26;102271.75;;;9.23;100.00
32237;BME280;18726;44.732;10.550;2022-12-18T00:31:30;102275.03;;;9.53;100.00
32237;BME280;18726;44.732;10.550;2022-12-18T00:34:34;102262.41;;;9.29;100.00
32237;BME280;18726;44.732;10.550;2022-12-18T00:37:38;102267.06;;;9.42;100.00
32237;BME280;18726;44.732;10.550;2022-12-18T00:40:41;102264.66;;;9.55;100.00
32237;BME280;18726;44.732;10.550;2022-12-18T00:43:45;102275.13;;;9.61;100.00
32237;BME280;18726;44.732;10.550;2022-12-18T00:46:49;102273.63;;;9.69;100.00
32237;BME280;18726;44.732;10.550;2022-12-18T00:49:53;102268.50;;;9.81;100.00
32237;BME280;18726;44.732;10.550;2022-12-18T00:52:57;102264.28;;;9.75;100.00
32237;BME280;18726;44.732;10.550;2022-12-18T00:56:04;102269.72;;;9.75;100.00
32237;BME280;18726;44.732;10.550;2022-12-18T00:59:08;102268.53;;;9.21;100.00
32237;BME280;18726;44.732;10.550;2022-12-18T01:02:12;102272.59;;;9.05;100.00
32237;BME280;18726;44.732;10.550;2022-12-18T01:05:15;102271.56;;;9.33;100.00
32237;BME280;18726;44.732;10.550;2022-12-18T01:08:19;102273.91;;;9.40;100.00
32237;BME280;18726;44.732;10.550;2022-12-18T01:11:24;102268.78;;;9.38;100.00
32237;BME280;18726;44.732;10.550;2022-12-18T01:14:31;102272.16;;;9.30;100.00
32237;BME280;18726;44.732;10.550;2022-12-18T01:17:36;102275.88;;;8.69;100.00
32237;BME280;18726;44.732;10.550;2022-12-18T01:20:40;102273.19;;;9.02;100.00
32237;BME280;18726;44.732;10.550;2022-12-18T01:23:44;102266.69;;;9.49;100.00
32237;BME280;18726;44.732;10.550;2022-12-18T01:26:48;102281.84;;;9.64;100.00
32237;BME280;18726;44.732;10.550;2022-12-18T01:29:53;102284.97;;;9.85;100.00
32237;BME280;18726;44.732;10.550;2022-12-18T01:32:58;102282.56;;;9.83;100.00
32237;BME280;18726;44.732;10.550;2022-12-18T01:36:02;102282.56;;;9.97;100.00
32237;BME280;18726;44.732;10.550;2022-12-18T01:39:09;102294.81;;;9.94;100.00
32237;BME280;18726;44.732;10.550;2022-12-18T01:42:15;102293.03;;;10.03;100.00
32237;BME280;18726;44.732;10.550;2022-12-18T01:45:26;102298.84;;;10.10;100.00
32237;BME280;18726;44.732;10.550;2022-12-18T01:48:30;102302.47;;;10.20;100.00
32237;BME280;18726;44.732;10.550;2022-12-18T01:51:34;102314.34;;;10.24;100.00
32237;BME280;18726;44.732;10.550;2022-12-18T01:54:38;102314.50;;;10.13;100.00
32237;BME280;18726;44.732;10.550;2022-12-18T01:57:42;102329.03;;;10.09;100.00
32237;BME280;18726;44.732;10.550;2022-12-18T02:00:46;102337.06;;;10.00;100.00
32237;BME280;18726;44.732;10.550;2022-12-18T02:03:51;102354.53;;;9.94;100.00
32237;BME280;18726;44.732;10.550;2022-12-18T02:07:10;102354.72;;;9.84;100.00
32237;BME280;18726;44.732;10.550;2022-12-18T02:13:43;102368.22;;;9.43;100.00
32237;BME280;18726;44.732;10.550;2022-12-18T02:26:50;102383.13;;;9.27;100.00
32237;BME280;18726;44.732;10.550;2022-12-18T02:30:00;102390.56;;;9.21;100.00
32237;BME280;18726;44.732;10.550;2022-12-18T02:33:07;102390.13;;;9.14;100.00
32237;BME280;18726;44.732;10.550;2022-12-18T02:36:12;102390.19;;;9.09;100.00
32237;BME280;18726;44.732;10.550;2022-12-18T02:39:21;102400.50;;;9.07;100.00
32237;BME280;18726;44.732;10.550;2022-12-18T02:42:44;102392.75;;;9.19;100.00
32237;BME280;18726;44.732;10.550;2022-12-18T02:45:58;102390.91;;;9.14;100.00
32237;BME280;18726;44.732;10.550;2022-12-18T02:56:19;102394.38;;;8.83;100.00
32237;BME280;18726;44.732;10.550;2022-12-18T02:59:59;102390.22;;;8.66;100.00
32237;BME280;18726;44.732;10.550;2022-12-18T03:03:16;102388.94;;;8.83;100.00
32237;BME280;18726;44.732;10.550;2022-12-18T03:06:35;102386.28;;;8.96;100.00
32237;BME280;18726;44.732;10.550;2022-12-18T03:09:43;102401.09;;;9.04;100.00
32237;BME280;18726;44.732;10.550;2022-12-18T03:12:55;102396.78;;;9.22;100.00
32237;BME280;18726;44.732;10.550;2022-12-18T03:16:05;102388.75;;;9.30;100.00
32237;BME280;18726;44.732;10.550;2022-12-18T03:19:15;102405.47;;;9.37;100.00
32237;BME280;18726;44.732;10.550;2022-12-18T03:22:20;102401.22;;;9.31;100.00
32237;BME280;18726;44.732;10.550;2022-12-18T03:25:47;102400.84;;;9.38;100.00
32237;BME280;18726;44.732;10.550;2022-12-18T03:28:56;102413.09;;;9.35;100.00
32237;BME280;18726;44.732;10.550;2022-12-18T03:32:26;102415.03;;;9.16;100.00
32237;BME280;18726;44.732;10.550;2022-12-18T03:35:34;102418.38;;;9.08;100.00
32237;BME280;18726;44.732;10.550;2022-12-18T03:38:41;102418.53;;;8.98;100.00
32237;BME280;18726;44.732;10.550;2022-12-18T03:41:59;102418.97;;;9.05;100.00
32237;BME280;18726;44.732;10.550;2022-12-18T03:45:22;102416.78;;;9.07;100.00
32237;BME280;18726;44.732;10.550;2022-12-18T03:48:44;102422.19;;;9.07;100.00
32237;BME280;18726;44.732;10.550;2022-12-18T03:52:07;102424.47;;;9.19;100.00
32237;BME280;18726;44.732;10.550;2022-12-18T03:55:17;102424.84;;;9.12;100.00
32237;BME280;18726;44.732;10.550;2022-12-18T03:58:34;102425.50;;;9.23;100.00
32237;BME280;18726;44.732;10.550;2022-12-18T04:01:52;102434.28;;;9.14;100.00
32237;BME280;18726;44.732;10.550;2022-12-18T04:04:59;102446.97;;;9.19;100.00
32237;BME280;18726;44.732;10.550;2022-12-18T04:08:05;102455.25;;;9.09;100.00
32237;BME280;18726;44.732;10.550;2022-12-18T04:11:16;102468.94;;;8.99;100.00
32237;BME280;18726;44.732;10.550;2022-12-18T04:14:22;102470.53;;;9.00;100.00
32237;BME280;18726;44.732;10.550;2022-12-18T04:17:37;102479.63;;;8.90;100.00
32237;BME280;18726;44.732;10.550;2022-12-18T04:20:41;102477.88;;;8.99;100.00
32237;BME280;18726;44.732;10.550;2022-12-18T04:23:46;102484.75;;;8.92;100.00
32237;BME280;18726;44.732;10.550;2022-12-18T04:26:50;102470.75;;;9.03;100.00
32237;BME280;18726;44.732;10.550;2022-12-18T04:29:59;102477.50;;;9.06;100.00
32237;BME280;18726;44.732;10.550;2022-12-18T04:33:30;102475.25;;;8.70;100.00
32237;BME280;18726;44.732;10.550;2022-12-18T04:36:35;102486.38;;;8.45;100.00
32237;BME280;18726;44.732;10.550;2022-12-18T04:39:38;102499.66;;;8.12;100.00
32237;BME280;18726;44.732;10.550;2022-12-18T04:42:48;102504.66;;;8.00;100.00
32237;BME280;18726;44.732;10.550;2022-12-18T04:45:52;102500.97;;;7.86;100.00
32237;BME280;18726;44.732;10.550;2022-12-18T04:49:14;102505.34;;;7.82;100.00
32237;BME280;18726;44.732;10.550;2022-12-18T04:57:17;102509.53;;;7.64;100.00
32237;BME280;18726;44.732;10.550;2022-12-18T05:04:39;102513.94;;;7.06;100.00
32237;BME280;18726;44.732;10.550;2022-12-18T05:07:57;102529.59;;;7.14;100.00
32237;BME280;18726;44.732;10.550;2022-12-18T05:11:12;102539.84;;;7.12;100.00
32237;BME280;18726;44.732;10.550;2022-12-18T05:14:18;102535.09;;;6.84;100.00
32237;BME280;18726;44.732;10.550;2022-12-18T05:17:21;102533.75;;;6.86;100.00
32237;BME280;18726;44.732;10.550;2022-12-18T05:20:25;102548.22;;;7.16;100.00
32237;BME280;18726;44.732;10.550;2022-12-18T05:23:30;102554.16;;;7.18;100.00
32237;BME280;18726;44.732;10.550;2022-12-18T05:26:33;102545.97;;;7.33;100.00
32237;BME280;18726;44.732;10.550;2022-12-18T05:29:37;102544.84;;;7.44;100.00
32237;BME280;18726;44.732;10.550;2022-12-18T05:32:49;102538.50;;;7.59;100.00
32237;BME280;18726;44.732;10.550;2022-12-18T05:36:22;102547.84;;;7.32;100.00
32237;BME280;18726;44.732;10.550;2022-12-18T05:39:34;102564.66;;;7.24;100.00
32237;BME280;18726;44.732;10.550;2022-12-18T05:42:39;102570.81;;;7.35;100.00
32237;BME280;18726;44.732;10.550;2022-12-18T05:45:46;102582.16;;;7.42;100.00
32237;BME280;18726;44.732;10.550;2022-12-18T05:48:49;102587.19;;;7.59;100.00
32237;BME280;18726;44.732;10.550;2022-12-18T05:51:53;102590.41;;;7.61;100.00
32237;BME280;18726;44.732;10.550;2022-12-18T05:55:06;102599.19;;;7.42;100.00
32237;BME280;18726;44.732;10.550;2022-12-18T05:58:12;102595.53;;;7.13;100.00
32237;BME280;18726;44.732;10.550;2022-12-18T06:01:21;102590.44;;;6.96;100.00
32237;BME280;18726;44.732;10.550;2022-12-18T06:04:29;102603.00;;;7.31;100.00
32237;BME280;18726;44.732;10.550;2022-12-18T06:07:33;102602.41;;;7.50;100.00
32237;BME280;18726;44.732;10.550;2022-12-18T06:10:37;102612.84;;;7.66;100.00
32237;BME280;18726;44.732;10.550;2022-12-18T06:13:41;102610.94;;;7.67;100.00
32237;BME280;18726;44.732;10.550;2022-12-18T06:16:45;102607.75;;;7.55;100.00
32237;BME280;18726;44.732;10.550;2022-12-18T06:19:48;102609.03;;;7.72;100.00
32237;BME280;18726;44.732;10.550;2022-12-18T06:22:52;102615.13;;;7.93;100.00
32237;BME280;18726;44.732;10.550;2022-12-18T06:25:56;102626.44;;;8.00;100.00
32237;BME280;18726;44.732;10.550;2022-12-18T06:29:00;102629.44;;;7.99;100.00
32237;BME280;18726;44.732;10.550;2022-12-18T06:32:04;102627.03;;;7.92;100.00
32237;BME280;18726;44.732;10.550;2022-12-18T06:35:08;102629.78;;;7.82;100.00
32237;BME280;18726;44.732;10.550;2022-12-18T06:38:11;102640.00;;;7.95;100.00
32237;BME280;18726;44.732;10.550;2022-12-18T06:41:17;102647.59;;;7.93;100.00
32237;BME280;18726;44.732;10.550;2022-12-18T06:44:23;102638.31;;;8.04;100.00
32237;BME280;18726;44.732;10.550;2022-12-18T06:47:30;102651.50;;;7.72;100.00
32237;BME280;18726;44.732;10.550;2022-12-18T06:50:34;102662.84;;;7.79;100.00
32237;BME280;18726;44.732;10.550;2022-12-18T06:53:38;102673.94;;;7.72;100.00
32237;BME280;18726;44.732;10.550;2022-12-18T06:56:52;102677.94;;;7.80;100.00
32237;BME280;18726;44.732;10.550;2022-12-18T07:00:18;102683.28;;;7.95;100.00
32237;BME280;18726;44.732;10.550;2022-12-18T07:03:28;102687.91;;;7.95;100.00
32237;BME280;18726;44.732;10.550;2022-12-18T07:06:36;102694.41;;;7.94;100.00
32237;BME280;18726;44.732;10.550;2022-12-18T07:10:02;102698.41;;;8.01;100.00
32237;BME280;18726;44.732;10.550;2022-12-18T07:13:15;102692.22;;;7.96;100.00
32237;BME280;18726;44.732;10.550;2022-12-18T07:16:21;102695.75;;;7.96;100.00
32237;BME280;18726;44.732;10.550;2022-12-18T07:19:34;102696.25;;;8.03;100.00
32237;BME280;18726;44.732;10.550;2022-12-18T07:22:38;102702.25;;;7.95;100.00
32237;BME280;18726;44.732;10.550;2022-12-18T07:25:50;102700.03;;;8.02;100.00
32237;BME280;18726;44.732;10.550;2022-12-18T07:29:01;102711.41;;;8.04;100.00
32237;BME280;18726;44.732;10.550;2022-12-18T07:32:05;102720.13;;;7.91;100.00
32237;BME280;18726;44.732;10.550;2022-12-18T07:35:10;102724.97;;;7.94;100.00
32237;BME280;18726;44.732;10.550;2022-12-18T07:38:14;102724.97;;;7.94;100.00
32237;BME280;18726;44.732;10.550;2022-12-18T07:41:22;102726.84;;;7.99;100.00
32237;BME280;18726;44.732;10.550;2022-12-18T07:44:28;102723.34;;;7.93;100.00
32237;BME280;18726;44.732;10.550;2022-12-18T07:47:35;102738.78;;;7.93;100.00
32237;BME280;18726;44.732;10.550;2022-12-18T07:50:57;102738.47;;;7.99;100.00
32237;BME280;18726;44.732;10.550;2022-12-18T07:54:06;102731.72;;;8.02;100.00
32237;BME280;18726;44.732;10.550;2022-12-18T07:57:09;102742.66;;;8.26;100.00
32237;BME280;18726;44.732;10.550;2022-12-18T08:00:21;102743.78;;;8.20;100.00
32237;BME280;18726;44.732;10.550;2022-12-18T08:03:44;102764.31;;;8.31;100.00
32237;BME280;18726;44.732;10.550;2022-12-18T08:07:23;102771.00;;;8.43;100.00
32237;BME280;18726;44.732;10.550;2022-12-18T08:10:57;102775.63;;;8.43;100.00
32237;BME280;18726;44.732;10.550;2022-12-18T08:14:46;102779.56;;;8.66;100.00
32237;BME280;18726;44.732;10.550;2022-12-18T08:22:39;102793.28;;;8.74;100.00
32237;BME280;18726;44.732;10.550;2022-12-18T08:25:43;102801.06;;;8.86;100.00
32237;BME280;18726;44.732;10.550;2022-12-18T08:28:49;102806.88;;;8.69;100.00
32237;BME280;18726;44.732;10.550;2022-12-18T08:31:52;102812.94;;;8.56;100.00
32237;BME280;18726;44.732;10.550;2022-12-18T08:34:56;102825.09;;;8.59;100.00
32237;BME280;18726;44.732;10.550;2022-12-18T08:38:00;102834.31;;;8.97;100.00
32237;BME280;18726;44.732;10.550;2022-12-18T08:41:09;102836.84;;;8.88;100.00
32237;BME280;18726;44.732;10.550;2022-12-18T08:44:13;102840.78;;;9.01;100.00
32237;BME280;18726;44.732;10.550;2022-12-18T08:47:35;102847.47;;;8.74;100.00
32237;BME280;18726;44.732;10.550;2022-12-18T08:50:40;102852.47;;;8.57;100.00
32237;BME280;18726;44.732;10.550;2022-12-18T08:53:44;102851.78;;;8.36;100.00
32237;BME280;18726;44.732;10.550;2022-12-18T08:56:48;102863.97;;;8.24;100.00
32237;BME280;18726;44.732;10.550;2022-12-18T08:59:53;102857.94;;;8.42;100.00
32237;BME280;18726;44.732;10.550;2022-12-18T09:02:57;102859.50;;;8.58;100.00
32237;BME280;18726;44.732;10.550;2022-12-18T09:06:01;102870.66;;;8.96;100.00
32237;BME280;18726;44.732;10.550;2022-12-18T09:09:05;102870.66;;;8.52;100.00
32237;BME280;18726;44.732;10.550;2022-12-18T09:12:09;102871.00;;;8.84;100.00
32237;BME280;18726;44.732;10.550;2022-12-18T09:15:13;102865.72;;;9.03;100.00
32237;BME280;18726;44.732;10.550;2022-12-18T09:18:18;102874.56;;;9.19;100.00
32237;BME280;18726;44.732;10.550;2022-12-18T09:21:22;102881.56;;;8.86;100.00
32237;BME280;18726;44.732;10.550;2022-12-18T09:24:26;102880.47;;;8.92;100.00
32237;BME280;18726;44.732;10.550;2022-12-18T09:27:34;102871.78;;;8.90;100.00
32237;BME280;18726;44.732;10.550;2022-12-18T09:30:56;102885.91;;;8.87;100.00
32237;BME280;18726;44.732;10.550;2022-12-18T09:34:00;102883.38;;;9.00;100.00
32237;BME280;18726;44.732;10.550;2022-12-18T09:37:04;102874.53;;;8.85;100.00
32237;BME280;18726;44.732;10.550;2022-12-18T09:40:28;102872.34;;;8.87;100.00
32237;BME280;18726;44.732;10.550;2022-12-18T09:50:30;102868.34;;;9.18;100.00
32237;BME280;18726;44.732;10.550;2022-12-18T09:53:37;102858.13;;;9.39;100.00
32237;BME280;18726;44.732;10.550;2022-12-18T09:56:43;102865.09;;;9.50;100.00
32237;BME280;18726;44.732;10.550;2022-12-18T09:59:54;102859.19;;;9.43;100.00
32237;BME280;18726;44.732;10.550;2022-12-18T10:03:12;102858.41;;;9.37;100.00
32237;BME280;18726;44.732;10.550;2022-12-18T10:06:37;102870.34;;;9.36;100.00
32237;BME280;18726;44.732;10.550;2022-12-18T10:09:58;102864.06;;;9.07;100.00
32237;BME280;18726;44.732;10.550;2022-12-18T10:23:48;102864.41;;;8.95;100.00
32237;BME280;18726;44.732;10.550;2022-12-18T10:31:05;102866.41;;;9.81;100.00
32237;BME280;18726;44.732;10.550;2022-12-18T10:34:27;102857.03;;;10.16;100.00
32237;BME280;18726;44.732;10.550;2022-12-18T10:38:01;102866.31;;;10.39;100.00
32237;BME280;18726;44.732;10.550;2022-12-18T10:46:30;102874.50;;;10.96;100.00
32237;BME280;18726;44.732;10.550;2022-12-18T10:49:35;102870.50;;;11.07;100.00
32237;BME280;18726;44.732;10.550;2022-12-18T10:52:39;102873.09;;;11.49;100.00
32237;BME280;18726;44.732;10.550;2022-12-18T10:55:45;102873.63;;;11.33;100.00
32237;BME280;18726;44.732;10.550;2022-12-18T10:58:59;102870.16;;;12.20;100.00
32237;BME280;18726;44.732;10.550;2022-12-18T11:02:35;102879.66;;;14.23;100.00
32237;BME280;18726;44.732;10.550;2022-12-18T11:05:39;102879.00;;;14.17;100.00
32237;BME280;18726;44.732;10.550;2022-12-18T11:08:56;102883.03;;;13.49;100.00
32237;BME280;18726;44.732;10.550;2022-12-18T11:12:03;102878.56;;;13.31;100.00
32237;BME280;18726;44.732;10.550;2022-12-18T11:15:26;102877.59;;;13.58;100.00
32237;BME280;18726;44.732;10.550;2022-12-18T11:18:34;102883.63;;;13.69;100.00
32237;BME280;18726;44.732;10.550;2022-12-18T11:21:40;102883.94;;;14.07;100.00
32237;BME280;18726;44.732;10.550;2022-12-18T11:24:53;102882.22;;;14.19;100.00
32237;BME280;18726;44.732;10.550;2022-12-18T11:31:27;102873.34;;;14.88;100.00
32237;BME280;18726;44.732;10.550;2022-12-18T11:34:31;102875.44;;;15.08;100.00
32237;BME280;18726;44.732;10.550;2022-12-18T11:37:36;102870.94;;;14.95;100.00
32237;BME280;18726;44.732;10.550;2022-12-18T11:40:42;102867.47;;;14.38;100.00
32237;BME280;18726;44.732;10.550;2022-12-18T11:43:54;102860.63;;;14.01;100.00
32237;BME280;18726;44.732;10.550;2022-12-18T11:47:09;102855.59;;;13.94;100.00
32237;BME280;18726;44.732;10.550;2022-12-18T11:50:28;102850.97;;;14.03;100.00
32237;BME280;18726;44.732;10.550;2022-12-18T11:53:34;102850.97;;;14.03;100.00
32237;BME280;18726;44.732;10.550;2022-12-18T11:56:51;102849.13;;;14.30;100.00
32237;BME280;18726;44.732;10.550;2022-12-18T12:00:19;102854.50;;;14.52;100.00
32237;BME280;18726;44.732;10.550;2022-12-18T12:14:01;102852.81;;;14.25;100.00
32237;BME280;18726;44.732;10.550;2022-12-18T12:21:09;102847.25;;;13.60;100.00
32237;BME280;18726;44.732;10.550;2022-12-18T12:24:39;102847.41;;;12.88;100.00
32237;BME280;18726;44.732;10.550;2022-12-18T12:38:47;102835.03;;;12.18;100.00
32237;BME280;18726;44.732;10.550;2022-12-18T12:46:12;102839.69;;;12.67;100.00
32237;BME280;18726;44.732;10.550;2022-12-18T12:53:46;102834.56;;;12.52;100.00
32237;BME280;18726;44.732;10.550;2022-12-18T13:00:21;102833.59;;;12.34;100.00
32237;BME280;18726;44.732;10.550;2022-12-18T13:03:53;102835.06;;;12.54;100.00
32237;BME280;18726;44.732;10.550;2022-12-18T13:07:01;102830.59;;;12.22;100.00
32237;BME280;18726;44.732;10.550;2022-12-18T13:13:55;102828.41;;;12.46;100.00
32237;BME280;18726;44.732;10.550;2022-12-18T13:17:24;102811.53;;;12.58;100.00
32237;BME280;18726;44.732;10.550;2022-12-18T13:20:34;102803.31;;;12.36;100.00
32237;BME280;18726;44.732;10.550;2022-12-18T13:23:39;102811.84;;;11.79;100.00
32237;BME280;18726;44.732;10.550;2022-12-18T13:26:43;102808.78;;;11.67;100.00
32237;BME280;18726;44.732;10.550;2022-12-18T13:29:47;102807.16;;;11.66;100.00
32237;BME280;18726;44.732;10.550;2022-12-18T13:36:29;102814.53;;;11.52;100.00
32237;BME280;18726;44.732;10.550;2022-12-18T13:39:33;102811.38;;;11.59;100.00
32237;BME280;18726;44.732;10.550;2022-12-18T13:42:38;102822.56;;;11.43;100.00
32237;BME280;18726;44.732;10.550;2022-12-18T13:46:17;102826.47;;;11.37;100.00
32237;BME280;18726;44.732;10.550;2022-12-18T13:49:28;102826.03;;;11.16;100.00
32237;BME280;18726;44.732;10.550;2022-12-18T13:52:37;102827.63;;;10.85;100.00
32237;BME280;18726;44.732;10.550;2022-12-18T13:55:44;102822.03;;;10.76;100.00
32237;BME280;18726;44.732;10.550;2022-12-18T14:02:17;102822.41;;;10.08;100.00
32237;BME280;18726;44.732;10.550;2022-12-18T14:05:32;102822.16;;;10.05;100.00
32237;BME280;18726;44.732;10.550;2022-12-18T14:08:41;102823.66;;;9.92;100.00
32237;BME280;18726;44.732;10.550;2022-12-18T14:11:48;102824.13;;;9.99;100.00
32237;BME280;18726;44.732;10.550;2022-12-18T14:14:52;102826.59;;;9.96;100.00
32237;BME280;18726;44.732;10.550;2022-12-18T14:18:20;102823.13;;;9.90;100.00
32237;BME280;18726;44.732;10.550;2022-12-18T14:21:30;102833.25;;;9.85;100.00
32237;BME280;18726;44.732;10.550;2022-12-18T14:24:37;102831.28;;;9.90;100.00
32237;BME280;18726;44.732;10.550;2022-12-18T14:28:31;102818.47;;;9.96;100.00
32237;BME280;18726;44.732;10.550;2022-12-18T14:31:18;102814.53;;;9.83;100.00
32237;BME280;18726;44.732;10.550;2022-12-18T14:34:26;102814.66;;;9.73;100.00
32237;BME280;18726;44.732;10.550;2022-12-18T14:37:30;102823.50;;;9.55;100.00
32237;BME280;18726;44.732;10.550;2022-12-18T14:40:34;102811.13;;;9.48;100.00
32237;BME280;18726;44.732;10.550;2022-12-18T14:43:40;102809.63;;;9.32;100.00
32237;BME280;18726;44.732;10.550;2022-12-18T14:46:46;102810.47;;;9.57;100.00
32237;BME280;18726;44.732;10.550;2022-12-18T14:49:50;102816.31;;;9.69;100.00
32237;BME280;18726;44.732;10.550;2022-12-18T14:52:54;102820.47;;;9.61;100.00
32237;BME280;18726;44.732;10.550;2022-12-18T14:55:58;102814.53;;;10.07;100.00
32237;BME280;18726;44.732;10.550;2022-12-18T14:59:06;102804.94;;;9.91;100.00
32237;BME280;18726;44.732;10.550;2022-12-18T15:02:26;102814.78;;;10.10;100.00
32237;BME280;18726;44.732;10.550;2022-12-18T15:05:31;102815.16;;;10.23;100.00
32237;BME280;18726;44.732;10.550;2022-12-18T15:08:36;102821.34;;;10.04;100.00
32237;BME280;18726;44.732;10.550;2022-12-18T15:14:43;102819.94;;;9.83;100.00
32237;BME280;18726;44.732;10.550;2022-12-18T15:17:47;102825.03;;;9.90;100.00
32237;BME280;18726;44.732;10.550;2022-12-18T15:20:56;102831.22;;;9.95;100.00
32237;BME280;18726;44.732;10.550;2022-12-18T15:24:00;102828.63;;;9.85;100.00
32237;BME280;18726;44.732;10.550;2022-12-18T15:27:04;102832.00;;;9.77;100.00
32237;BME280;18726;44.732;10.550;2022-12-18T15:33:26;102835.00;;;9.75;100.00
32237;BME280;18726;44.732;10.550;2022-12-18T15:36:30;102832.56;;;9.74;100.00
32237;BME280;18726;44.732;10.550;2022-12-18T15:39:34;102843.97;;;9.71;100.00
32237;BME280;18726;44.732;10.550;2022-12-18T15:42:39;102843.28;;;9.60;100.00
32237;BME280;18726;44.732;10.550;2022-12-18T15:46:05;102844.50;;;9.73;100.00
32237;BME280;18726;44.732;10.550;2022-12-18T15:49:09;102848.38;;;9.38;100.00
32237;BME280;18726;44.732;10.550;2022-12-18T15:52:13;102849.13;;;9.43;100.00
32237;BME280;18726;44.732;10.550;2022-12-18T15:55:23;102852.69;;;9.39;100.00
32237;BME280;18726;44.732;10.550;2022-12-18T15:58:45;102854.97;;;9.56;100.00
32237;BME280;18726;44.732;10.550;2022-12-18T16:01:51;102858.56;;;9.22;100.00
32237;BME280;18726;44.732;10.550;2022-12-18T16:04:56;102864.56;;;9.14;100.00
32237;BME280;18726;44.732;10.550;2022-12-18T16:08:00;102865.81;;;8.93;100.00
32237;BME280;18726;44.732;10.550;2022-12-18T16:11:05;102861.41;;;8.97;100.00
32237;BME280;18726;44.732;10.550;2022-12-18T16:14:23;102868.41;;;9.08;100.00
32237;BME280;18726;44.732;10.550;2022-12-18T16:17:29;102866.47;;;8.69;100.00
32237;BME280;18726;44.732;10.550;2022-12-18T16:20:32;102865.16;;;9.06;100.00
32237;BME280;18726;44.732;10.550;2022-12-18T16:23:36;102864.84;;;9.12;100.00
32237;BME280;18726;44.732;10.550;2022-12-18T16:26:40;102866.72;;;9.17;100.00
32237;BME280;18726;44.732;10.550;2022-12-18T16:29:45;102867.25;;;9.19;100.00
32237;BME280;18726;44.732;10.550;2022-12-18T16:32:50;102867.91;;;9.01;100.00
32237;BME280;18726;44.732;10.550;2022-12-18T16:35:53;102868.72;;;8.57;100.00
32237;BME280;18726;44.732;10.550;2022-12-18T16:38:57;102875.97;;;7.97;100.00
32237;BME280;18726;44.732;10.550;2022-12-18T16:42:14;102872.78;;;8.60;100.00
32237;BME280;18726;44.732;10.550;2022-12-18T16:45:19;102864.81;;;8.78;100.00
32237;BME280;18726;44.732;10.550;2022-12-18T16:48:23;102866.97;;;8.76;100.00
32237;BME280;18726;44.732;10.550;2022-12-18T16:51:27;102866.16;;;8.81;100.00
32237;BME280;18726;44.732;10.550;2022-12-18T16:54:31;102870.34;;;8.58;100.00
32237;BME280;18726;44.732;10.550;2022-12-18T16:57:35;102862.34;;;8.28;100.00
32237;BME280;18726;44.732;10.550;2022-12-18T17:00:40;102867.09;;;8.61;100.00
32237;BME280;18726;44.732;10.550;2022-12-18T17:03:44;102861.19;;;8.49;100.00
32237;BME280;18726;44.732;10.550;2022-12-18T17:06:47;102868.31;;;8.35;100.00
32237;BME280;18726;44.732;10.550;2022-12-18T17:09:54;102863.25;;;8.03;100.00
32237;BME280;18726;44.732;10.550;2022-12-18T17:12:58;102866.72;;;8.08;100.00
32237;BME280;18726;44.732;10.550;2022-12-18T17:16:05;102860.47;;;8.18;100.00
32237;BME280;18726;44.732;10.550;2022-12-18T17:19:10;102869.38;;;8.34;100.00
32237;BME280;18726;44.732;10.550;2022-12-18T17:22:14;102865.03;;;8.28;100.00
32237;BME280;18726;44.732;10.550;2022-12-18T17:25:18;102868.00;;;8.31;100.00
32237;BME280;18726;44.732;10.550;2022-12-18T17:28:23;102875.38;;;8.10;100.00
32237;BME280;18726;44.732;10.550;2022-12-18T17:31:29;102879.63;;;8.42;100.00
32237;BME280;18726;44.732;10.550;2022-12-18T17:34:32;102883.09;;;8.58;100.00
32237;BME280;18726;44.732;10.550;2022-12-18T17:37:37;102889.41;;;8.23;100.00
32237;BME280;18726;44.732;10.550;2022-12-18T17:40:41;102888.59;;;8.27;100.00
32237;BME280;18726;44.732;10.550;2022-12-18T17:43:53;102893.84;;;7.83;100.00
32237;BME280;18726;44.732;10.550;2022-12-18T17:46:57;102893.59;;;7.79;100.00
32237;BME280;18726;44.732;10.550;2022-12-18T17:50:00;102899.19;;;8.08;100.00
32237;BME280;18726;44.732;10.550;2022-12-18T17:53:04;102903.56;;;8.04;100.00
32237;BME280;18726;44.732;10.550;2022-12-18T17:56:12;102899.78;;;8.05;100.00
32237;BME280;18726;44.732;10.550;2022-12-18T17:59:16;102915.25;;;7.69;100.00
32237;BME280;18726;44.732;10.550;2022-12-18T18:02:20;102912.22;;;8.06;100.00
32237;BME280;18726;44.732;10.550;2022-12-18T18:05:23;102912.44;;;8.15;100.00
32237;BME280;18726;44.732;10.550;2022-12-18T18:08:27;102907.63;;;7.87;100.00
32237;BME280;18726;44.732;10.550;2022-12-18T18:11:31;102918.75;;;7.34;100.00